Time;durP1;ratioP1;P1;durP2;ratioP2;P2;SDS_P1;SDS_P2;PMS_P1;PMS_P2;Temp;Humidity;BMP_temperature;BMP_pressure;BME280_temperature;BME280_humidity;BME280_pressure;Samples;Min_cycle;Max_cycle;Signal;HPM_P1;HPM_P2
2022/10/21 00:01:29;;;;;;;11.40;8.07;;;10.40;99.90;;;;;;20951275;28;20126;-60
2022/10/21 00:11:32;;;;;;;15.25;8.95;;;10.40;99.90;;;;;;20949217;28;20071;-60
2022/10/21 00:21:35;;;;;;;19.65;12.77;;;10.20;99.90;;;;;;20966069;28;20040;-65
2022/10/21 00:31:38;;;;;;;27.38;16.17;;;10.20;99.90;;;;;;20982259;28;20048;-65
2022/10/21 00:41:40;;;;;;;11.38;6.85;;;10.30;99.90;;;;;;20983849;28;20036;-60
2022/10/21 00:51:47;;;;;;;6.13;1.88;;;10.50;99.90;;;;;;21050416;28;20039;-60
2022/10/21 01:01:49;;;;;;;4.85;1.83;;;10.60;99.90;;;;;;21052999;28;20031;-60
2022/10/21 01:11:52;;;;;;;7.40;1.90;;;10.70;99.90;;;;;;21051458;28;20028;-61
2022/10/21 01:22:01;;;;;;;5.35;2.03;;;10.50;99.90;;;;;;21048036;28;20040;-60
2022/10/21 01:32:11;;;;;;;7.15;4.00;;;10.10;99.90;;;;;;21050115;28;20094;-60
2022/10/21 01:42:13;;;;;;;;;;;9.80;99.90;;;;;;21016397;28;20409;-60
2022/10/21 01:52:16;;;;;;;10.55;5.95;;;9.70;99.90;;;;;;20953773;28;19908;-61
2022/10/21 02:02:21;;;;;;;11.77;5.35;;;9.50;99.90;;;;;;20953813;28;20063;-61
2022/10/21 02:12:27;;;;;;;6.57;3.78;;;9.60;99.90;;;;;;20969001;28;20029;-60
2022/10/21 02:22:31;;;;;;;7.50;4.97;;;9.80;99.90;;;;;;20956016;28;20316;-65
2022/10/21 02:33:02;;;;;;;12.32;6.78;;;9.90;99.90;;;;;;20962005;28;20040;-65
2022/10/21 02:43:17;;;;;;;7.50;4.28;;;10.10;99.90;;;;;;20973885;28;20041;-65
2022/10/21 02:53:20;;;;;;;9.25;3.65;;;10.00;99.90;;;;;;20983696;28;20033;-61
2022/10/21 03:03:23;;;;;;;6.63;4.25;;;10.10;99.90;;;;;;20982925;28;20048;-60
2022/10/21 03:13:26;;;;;;;14.55;6.60;;;9.90;99.90;;;;;;20981782;28;20044;-65
2022/10/21 03:23:28;;;;;;;11.82;7.55;;;9.80;99.90;;;;;;20981247;28;20098;-61
2022/10/21 03:33:31;;;;;;;15.23;7.78;;;9.80;99.90;;;;;;20980891;28;20037;-62
2022/10/21 03:43:33;;;;;;;10.38;6.47;;;10.00;99.90;;;;;;20990307;28;20086;-61
2022/10/21 03:53:36;;;;;;;11.50;6.47;;;10.10;99.90;;;;;;21055170;28;20183;-65
2022/10/21 04:03:40;;;;;;;16.45;7.18;;;10.10;99.90;;;;;;21056931;28;20097;-61
2022/10/21 04:13:42;;;;;;;12.82;6.65;;;10.20;99.90;;;;;;21056085;28;20032;-65
2022/10/21 04:23:45;;;;;;;17.02;10.48;;;10.30;99.90;;;;;;21050518;28;20090;-60
2022/10/21 04:33:48;;;;;;;13.32;7.80;;;10.50;99.90;;;;;;21038469;28;20483;-61
2022/10/21 04:43:51;;;;;;;17.35;10.75;;;10.40;99.90;;;;;;21030123;28;20047;-61
2022/10/21 04:53:54;;;;;;;40.88;23.42;;;10.60;99.90;;;;;;20969773;28;20040;-66
2022/10/21 05:03:57;;;;;;;74.68;35.78;;;10.80;99.90;;;;;;20957455;28;20397;-65
2022/10/21 05:13:59;;;;;;;51.85;30.08;;;10.90;99.90;;;;;;20972743;28;20032;-65
2022/10/21 05:24:02;;;;;;;43.90;25.75;;;10.90;99.90;;;;;;20971784;28;20551;-60
2022/10/21 05:34:05;;;;;;;31.98;20.23;;;10.90;99.90;;;;;;20954553;28;20078;-65
2022/10/21 05:44:07;;;;;;;27.70;15.27;;;10.80;99.90;;;;;;20953854;28;20490;-61
2022/10/21 05:54:10;;;;;;;22.05;13.68;;;10.70;99.90;;;;;;20969850;28;20449;-62
2022/10/21 06:04:13;;;;;;;36.65;21.38;;;10.90;99.90;;;;;;20969127;28;20044;-65
2022/10/21 06:14:15;;;;;;;26.60;17.35;;;10.90;99.90;;;;;;20969337;28;20036;-65
2022/10/21 06:24:18;;;;;;;27.58;17.10;;;11.00;99.90;;;;;;20964384;28;20052;-65
2022/10/21 06:34:21;;;;;;;26.35;15.25;;;11.00;99.90;;;;;;20951650;28;20036;-65
2022/10/21 06:44:23;;;;;;;25.42;13.45;;;11.20;99.90;;;;;;20951348;28;20052;-61
2022/10/21 06:54:27;;;;;;;20.10;11.32;;;11.30;99.90;;;;;;20951102;28;20045;-65
2022/10/21 07:04:29;;;;;;;21.05;10.65;;;11.30;99.90;;;;;;20950971;28;20048;-65
2022/10/21 07:14:32;;;;;;;3.28;1.00;;;11.30;99.90;;;;;;20969567;28;20083;-65
2022/10/21 07:24:35;;;;;;;2.70;1.00;;;11.60;99.90;;;;;;20929363;28;20107;-67
2022/10/21 07:34:37;;;;;;;3.85;1.33;;;11.90;99.90;;;;;;20931660;28;20546;-62
2022/10/21 07:44:40;;;;;;;8.80;5.40;;;12.60;99.90;;;;;;20889075;28;20041;-67
2022/10/21 07:54:43;;;;;;;13.30;8.18;;;13.40;99.90;;;;;;20905218;28;21524;-67
2022/10/21 08:04:45;;;;;;;12.95;8.57;;;13.80;99.90;;;;;;20934714;28;20044;-62
2022/10/21 08:14:48;;;;;;;25.83;16.50;;;13.90;99.90;;;;;;20977878;28;20099;-62
2022/10/21 08:24:50;;;;;;;25.30;17.17;;;14.00;99.90;;;;;;20972851;28;20033;-67
2022/10/21 08:34:53;;;;;;;24.85;16.20;;;14.00;99.90;;;;;;20980250;28;20086;-67
2022/10/21 08:45:02;;;;;;;23.02;15.00;;;13.90;99.90;;;;;;20975818;28;20506;-61
2022/10/21 08:55:09;;;;;;;;;;;13.50;99.90;;;;;;20958906;28;20036;-61
2022/10/21 09:05:45;;;;;;;21.63;12.80;;;13.20;99.90;;;;;;20973547;28;20431;-61
2022/10/21 09:16:13;;;;;;;29.63;17.73;;;13.20;99.90;;;;;;20972635;28;20036;-67
2022/10/21 09:26:30;;;;;;;25.70;17.95;;;13.20;99.90;;;;;;20955770;28;20044;-61
2022/10/21 09:36:37;;;;;;;26.65;17.80;;;13.20;99.90;;;;;;20937791;28;20576;-62
2022/10/21 09:46:40;;;;;;;24.88;16.17;;;13.30;99.90;;;;;;20970685;28;20097;-67
2022/10/21 09:56:51;;;;;;;25.05;16.63;;;13.60;99.90;;;;;;20970866;28;20048;-67
2022/10/21 10:06:55;;;;;;;22.45;15.07;;;14.00;99.90;;;;;;20969507;28;20378;-61
2022/10/21 10:17:25;;;;;;;17.27;12.32;;;14.30;99.90;;;;;;20956701;28;20106;-66
2022/10/21 10:27:28;;;;;;;19.10;13.35;;;14.70;99.90;;;;;;20953082;28;20036;-67
2022/10/21 10:37:37;;;;;;;17.02;12.75;;;14.60;99.90;;;;;;20967832;28;20087;-61
2022/10/21 10:47:48;;;;;;;16.20;11.37;;;14.60;99.90;;;;;;21003119;28;20052;-67
2022/10/21 10:57:54;;;;;;;14.05;10.07;;;15.00;99.90;;;;;;21061453;28;20043;-67
2022/10/21 11:08:15;;;;;;;16.15;9.65;;;14.90;99.90;;;;;;21062162;28;20036;-62
2022/10/21 11:18:49;;;;;;;13.18;9.02;;;15.20;99.90;;;;;;21042441;28;20032;-61
2022/10/21 11:29:11;;;;;;;16.00;11.48;;;15.20;99.90;;;;;;21058442;28;20040;-62
2022/10/21 11:39:20;;;;;;;14.75;11.00;;;15.20;99.90;;;;;;21035046;28;20473;-66
2022/10/21 11:49:41;;;;;;;15.47;10.60;;;15.40;99.90;;;;;;21052664;28;20040;-62
2022/10/21 12:00:21;;;;;;;16.83;12.00;;;15.30;99.90;;;;;;21041225;28;20044;-67
2022/10/21 12:10:54;;;;;;;16.50;11.18;;;15.10;99.90;;;;;;20651118;28;20050;-61
2022/10/21 12:20:58;;;;;;;16.48;11.10;;;15.20;99.90;;;;;;20632066;28;20050;-67
2022/10/21 12:31:16;;;;;;;20.60;11.27;;;15.20;99.90;;;;;;20636043;28;20093;-66
2022/10/21 12:41:36;;;;;;;19.88;11.77;;;14.70;99.90;;;;;;20862948;28;20044;-61
2022/10/21 12:51:46;;;;;;;17.30;12.20;;;14.20;99.90;;;;;;21018904;28;20094;-66
2022/10/21 13:02:17;;;;;;;16.75;12.13;;;13.90;99.90;;;;;;21053273;28;20040;-61
2022/10/21 13:12:23;;;;;;;16.27;11.57;;;13.60;99.90;;;;;;21012790;28;20032;-66
2022/10/21 13:22:38;;;;;;;16.92;11.35;;;13.50;99.90;;;;;;21031715;28;20044;-65
2022/10/21 13:32:44;;;;;;;16.83;11.63;;;13.10;99.90;;;;;;21050185;28;20393;-66
2022/10/21 13:42:59;;;;;;;16.65;10.25;;;12.80;99.90;;;;;;21032103;28;20044;-61
2022/10/21 13:53:10;;;;;;;19.48;13.13;;;12.70;99.90;;;;;;21020526;28;20382;-60
2022/10/21 14:03:18;;;;;;;22.10;14.90;;;12.70;99.90;;;;;;20970134;28;20029;-60
2022/10/21 14:13:24;;;;;;;17.80;13.20;;;12.80;99.90;;;;;;20946781;28;20028;-66
2022/10/21 14:23:28;;;;;;;18.63;13.10;;;12.70;99.90;;;;;;20965136;28;20040;-61
2022/10/21 14:33:34;;;;;;;18.08;13.27;;;12.60;99.90;;;;;;21010650;28;20059;-61
2022/10/21 14:43:38;;;;;;;19.60;14.25;;;12.40;99.90;;;;;;20997904;28;20036;-61
2022/10/21 14:54:02;;;;;;;17.80;12.93;;;12.40;99.90;;;;;;21046615;28;20070;-66
2022/10/21 15:04:49;;;;;;;19.00;13.10;;;12.30;99.90;;;;;;21027376;28;20040;-65
2022/10/21 15:14:51;;;;;;;17.17;12.82;;;12.20;99.90;;;;;;21042061;28;20117;-65
2022/10/21 15:25:04;;;;;;;18.30;12.13;;;12.00;99.90;;;;;;21025648;28;20036;-66
2022/10/21 15:35:15;;;;;;;18.75;12.43;;;11.90;99.90;;;;;;21059640;28;20055;-65
2022/10/21 15:45:23;;;;;;;19.83;10.73;;;11.80;99.90;;;;;;21058940;28;20484;-64
2022/10/21 15:55:25;;;;;;;15.75;9.68;;;11.80;99.90;;;;;;21058171;28;20036;-60
2022/10/21 16:05:28;;;;;;;18.00;11.23;;;11.70;99.90;;;;;;21057143;28;20044;-65
2022/10/21 16:15:31;;;;;;;14.65;10.13;;;11.50;99.90;;;;;;21055581;28;20036;-64
2022/10/21 16:25:33;;;;;;;16.42;9.95;;;11.30;99.90;;;;;;21056091;28;20053;-61
2022/10/21 16:35:36;;;;;;;15.68;11.23;;;11.20;99.90;;;;;;21038199;28;20094;-64
2022/10/21 16:45:41;;;;;;;18.35;11.82;;;11.10;99.90;;;;;;21012997;28;20045;-62
2022/10/21 16:55:43;;;;;;;20.77;11.95;;;11.00;99.90;;;;;;20974579;28;20049;-61
2022/10/21 17:05:46;;;;;;;17.77;10.95;;;11.10;99.90;;;;;;20973444;28;20539;-61
2022/10/21 17:15:48;;;;;;;17.75;11.70;;;11.20;99.90;;;;;;20972942;28;20398;-65
2022/10/21 17:25:50;;;;;;;20.27;12.23;;;11.20;99.90;;;;;;20972038;28;20040;-62
2022/10/21 17:35:54;;;;;;;18.73;12.32;;;11.30;99.90;;;;;;20971333;28;20098;-65
2022/10/21 17:45:56;;;;;;;15.07;11.00;;;11.40;99.90;;;;;;20924992;28;20063;-62
2022/10/21 17:56:02;;;;;;;17.17;10.95;;;11.40;99.90;;;;;;20933724;28;20037;-61
2022/10/21 18:06:07;;;;;;;18.10;11.13;;;11.50;99.90;;;;;;20954248;28;20036;-65
2022/10/21 18:16:17;;;;;;;16.45;10.60;;;11.50;99.90;;;;;;20947644;28;20098;-61
2022/10/21 18:26:24;;;;;;;18.80;11.23;;;11.60;99.90;;;;;;20922358;28;20029;-61
2022/10/21 18:36:29;;;;;;;15.48;9.98;;;11.60;99.90;;;;;;20934613;28;20423;-65
2022/10/21 18:46:31;;;;;;;16.63;9.38;;;11.60;99.90;;;;;;20982654;28;20048;-61
2022/10/21 18:56:34;;;;;;;14.93;9.05;;;11.60;99.90;;;;;;20966632;28;20045;-65
2022/10/21 19:06:42;;;;;;;12.68;8.15;;;11.60;99.90;;;;;;20949817;28;20040;-62
2022/10/21 19:16:47;;;;;;;13.10;7.10;;;11.50;99.90;;;;;;20962203;28;20095;-65
2022/10/21 19:26:58;;;;;;;13.45;7.35;;;11.50;99.90;;;;;;20980856;28;20037;-65
2022/10/21 19:37:01;;;;;;;11.48;7.30;;;11.40;99.90;;;;;;20963675;28;20063;-61
2022/10/21 19:47:05;;;;;;;15.07;7.35;;;11.50;99.90;;;;;;21011261;28;20098;-65
2022/10/21 19:57:08;;;;;;;12.10;6.65;;;11.40;99.90;;;;;;21056492;28;20463;-61
2022/10/21 20:07:10;;;;;;;12.70;5.40;;;11.40;99.90;;;;;;21056573;28;20036;-61
2022/10/21 20:17:13;;;;;;;8.25;5.35;;;11.40;99.90;;;;;;21037265;28;20040;-61
2022/10/21 20:27:15;;;;;;;11.90;5.43;;;11.40;99.90;;;;;;21037299;28;20081;-66
2022/10/21 20:37:18;;;;;;;9.98;4.60;;;11.40;99.90;;;;;;21038002;28;20032;-65
2022/10/21 20:47:20;;;;;;;8.45;4.60;;;11.40;99.90;;;;;;21032769;28;20060;-65
2022/10/21 20:57:23;;;;;;;10.45;4.65;;;11.40;99.90;;;;;;21050460;28;20066;-61
2022/10/21 21:07:25;;;;;;;8.48;4.05;;;11.40;99.90;;;;;;21034865;28;20040;-65
2022/10/21 21:17:28;;;;;;;11.10;4.43;;;11.40;99.90;;;;;;21050745;28;20032;-66
2022/10/21 21:27:31;;;;;;;8.50;4.35;;;11.50;99.90;;;;;;21046003;28;20039;-62
2022/10/21 21:37:35;;;;;;;11.80;4.45;;;11.40;99.90;;;;;;21032196;28;20454;-65
2022/10/21 21:47:37;;;;;;;8.88;5.18;;;11.30;99.90;;;;;;20994618;28;20095;-61
2022/10/21 21:57:39;;;;;;;7.95;5.25;;;11.30;99.90;;;;;;20973474;28;20040;-65
2022/10/21 22:07:42;;;;;;;7.43;5.35;;;11.30;99.90;;;;;;20968623;28;20423;-65
2022/10/21 22:17:44;;;;;;;11.85;5.68;;;11.40;99.90;;;;;;20952850;28;20033;-61
2022/10/21 22:27:47;;;;;;;9.20;5.90;;;11.30;99.90;;;;;;20963898;28;20087;-65
2022/10/21 22:37:50;;;;;;;10.43;6.70;;;11.20;99.90;;;;;;20951060;28;20037;-61
2022/10/21 22:47:52;;;;;;;11.38;6.97;;;11.10;99.90;;;;;;21029113;28;20047;-65
2022/10/21 22:57:54;;;;;;;11.55;8.38;;;10.90;99.90;;;;;;21041513;28;20555;-60
2022/10/21 23:07:57;;;;;;;13.68;8.25;;;10.90;99.90;;;;;;21061517;28;20062;-62
2022/10/21 23:17:59;;;;;;;14.93;8.65;;;10.90;99.90;;;;;;21059540;28;20066;-62
2022/10/21 23:28:02;;;;;;;14.40;9.32;;;11.00;99.90;;;;;;21059100;28;20094;-64
2022/10/21 23:38:05;;;;;;;14.43;8.45;;;11.00;99.90;;;;;;20817901;28;20099;-61
2022/10/21 23:48:08;;;;;;;14.80;9.63;;;11.00;99.90;;;;;;20793662;28;20076;-61
2022/10/21 23:58:10;;;;;;;13.38;9.27;;;10.90;99.90;;;;;;20794872;28;20500;-65
